Terminal Aerodrome Forecast
Issued by NWS Green Bay, WI

Home | Current Version | Previous Version | Text Only | Print | Product List | Glossary On
Versions: 1 2 3 4 5 6 7 8 9 10 11 12 13 14 15 16 17 18 19 20 21 22 23 24 25 26 27 28 29 30 31 32 33 34 35 36 37 38 39 40 41 42 43 44
000
FTUS43 KGRB 241241 AAB
TAFGRB
TAF AMD
KGRB 241241Z 2413/2512 04012KT 5SM BR OVC007
      TEMPO 2413/2416 2SM -SHRA BR OVC004
     FM241600 04012KT 5SM -SHRA BR OVC006
     FM242100 04012G18KT P6SM BKN020
     FM250800 01010KT 5SM BR BKN010=

USA.gov is the U.S. government's official web portal to all federal, state and local government web resources and services.